Time;durP1;ratioP1;P1;durP2;ratioP2;P2;SDS_P1;SDS_P2;PMS_P1;PMS_P2;Temp;Humidity;BMP_temperature;BMP_pressure;BME280_temperature;BME280_humidity;BME280_pressure;Samples;Min_cycle;Max_cycle;Signal;HPM_P1;HPM_P2
2022/05/27 00:02:53;;;;;;;;;;;;;;;20.14;51.73;100181.38;7685559;32;37764;-81
2022/05/27 00:07:09;;;;;;;5.62;1.95;;;;;;;20.35;51.13;100186.25;7685423;32;39501;-80
2022/05/27 00:11:25;;;;;;;3.85;1.50;;;;;;;20.25;50.82;100182.69;7685047;32;40824;-81
2022/05/27 00:15:42;;;;;;;1.77;1.20;;;;;;;20.29;50.41;100184.78;7685608;32;38759;-81
2022/05/27 00:19:58;;;;;;;3.50;1.42;;;;;;;20.25;50.56;100170.81;7684948;32;37833;-82
2022/05/27 00:24:14;;;;;;;2.67;1.55;;;;;;;20.18;50.73;100174.06;7684943;32;40213;-82
2022/05/27 00:28:30;;;;;;;2.65;1.80;;;;;;;19.77;52.10;100161.53;7704972;32;40250;-81
2022/05/27 00:32:46;;;;;;;2.40;1.30;;;;;;;19.58;53.05;100172.06;7711475;32;38072;-82
2022/05/27 00:37:04;;;;;;;2.42;1.50;;;;;;;19.52;53.56;100174.16;7711522;32;37106;-83
2022/05/27 00:41:20;;;;;;;2.45;1.65;;;;;;;19.50;53.67;100174.47;7711278;32;38358;-81
2022/05/27 00:45:38;;;;;;;3.90;1.67;;;;;;;19.21;54.70;100172.28;7711078;32;40979;-81
2022/05/27 00:49:58;;;;;;;7.50;1.55;;;;;;;19.11;55.00;100173.41;7711287;32;39597;-81
2022/05/27 00:54:22;;;;;;;3.28;1.80;;;;;;;19.30;54.28;100175.91;7709918;32;36756;-81
2022/05/27 00:58:43;;;;;;;1.92;1.40;;;;;;;19.36;53.92;100168.25;7710396;32;39796;-82
2022/05/27 01:03:01;;;;;;;1.50;1.40;;;;;;;19.25;53.94;100162.22;7709878;32;40009;-81
2022/05/27 01:07:17;;;;;;;2.58;1.37;;;;;;;18.99;54.48;100164.91;7709726;32;38025;-81
2022/05/27 01:11:53;;;;;;;4.10;1.75;;;;;;;19.22;53.45;100157.34;7685698;32;37981;-81
2022/05/27 01:16:15;;;;;;;2.47;1.58;;;;;;;19.09;53.60;100153.56;7683310;32;40130;-81
2022/05/27 01:20:34;;;;;;;1.55;1.45;;;;;;;18.84;54.50;100151.53;7683837;32;40936;-81
2022/05/27 01:25:05;;;;;;;4.10;1.70;;;;;;;18.85;54.37;100151.22;7684236;32;38497;-81
2022/05/27 01:29:52;;;;;;;1.45;1.35;;;;;;;18.79;54.12;100148.87;7684164;32;37100;-81
2022/05/27 01:34:29;;;;;;;5.25;1.65;;;;;;;18.98;53.29;100146.69;7695024;32;40077;-81
2022/05/27 01:38:58;;;;;;;1.48;1.23;;;;;;;18.77;53.71;100147.22;7683126;32;40551;-81
2022/05/27 01:43:46;;;;;;;1.92;1.45;;;;;;;18.77;53.65;100161.03;7682426;32;37854;-81
2022/05/27 01:48:20;;;;;;;2.35;1.40;;;;;;;18.77;53.62;100151.94;7709857;32;37452;-82
2022/05/27 01:52:52;;;;;;;1.98;1.50;;;;;;;18.82;53.64;100143.56;7692092;32;39056;-81
2022/05/27 01:57:34;;;;;;;1.73;1.23;;;;;;;18.65;54.16;100148.97;7683148;32;39843;-80
2022/05/27 02:01:56;;;;;;;3.92;1.50;;;;;;;18.53;54.71;100146.78;7682327;32;37579;-81
2022/05/27 02:06:25;;;;;;;1.60;1.50;;;;;;;18.53;54.87;100146.78;7683286;32;37899;-81
2022/05/27 02:10:44;;;;;;;4.97;1.70;;;;;;;18.41;55.14;100154.84;7684366;32;38977;-81
2022/05/27 02:15:14;;;;;;;2.72;1.40;;;;;;;18.38;55.45;100159.88;7692723;32;40744;-81
2022/05/27 02:19:35;;;;;;;1.83;1.40;;;;;;;18.38;55.42;100151.59;7695436;32;38507;-82
2022/05/27 02:23:57;;;;;;;4.68;1.70;;;;;;;18.44;55.15;100151.44;7686320;32;37786;-82
2022/05/27 02:28:27;;;;;;;3.37;1.60;;;;;;;18.09;56.14;100148.44;7685139;32;40003;-81
2022/05/27 02:35:07;;;;;;;5.25;1.60;;;;;;;18.22;55.71;100146.78;7689623;32;40750;-81
2022/05/27 02:37:33;;;;;;;4.22;1.92;;;;;;;18.10;55.93;100142.63;7712696;32;38016;-81
2022/05/27 02:42:13;;;;;;;5.20;1.80;;;;;;;18.20;55.63;100138.81;7712576;32;38004;-81
2022/05/27 02:46:38;;;;;;;2.80;1.67;;;;;;;17.88;56.83;100143.44;7694242;32;39969;-81
2022/05/27 02:51:04;;;;;;;3.65;1.90;;;;;;;18.13;56.05;100141.19;7686046;32;40015;-80
2022/05/27 02:55:35;;;;;;;2.75;1.52;;;;;;;18.08;56.01;100144.88;7685944;32;38706;-82
2022/05/27 02:59:52;;;;;;;6.35;1.70;;;;;;;17.89;56.45;100147.03;7685003;32;37848;-81
2022/05/27 03:04:08;;;;;;;2.90;2.08;;;;;;;17.98;58.26;100151.47;7684606;32;40264;-81
2022/05/27 03:08:31;;;;;;;2.85;1.85;;;;;;;17.90;56.77;100149.47;7684614;32;40849;-81
2022/05/27 03:12:47;;;;;;;;;;;;;;;18.06;56.18;100154.59;7686094;32;38530;-81
2022/05/27 03:17:43;;;;;;;3.50;1.75;;;;;;;17.71;57.45;100157.84;7686788;32;36739;-81
2022/05/27 03:22:22;;;;;;;2.17;1.50;;;;;;;17.77;57.31;100164.09;7686381;32;39279;-81
2022/05/27 03:27:19;;;;;;;4.75;1.70;;;;;;;17.69;57.50;100162.87;7684659;32;41135;-82
2022/05/27 03:31:50;;;;;;;3.90;1.50;;;;;;;17.71;57.68;100165.31;7691640;32;37908;-81
2022/05/27 03:36:18;;;;;;;4.82;1.67;;;;;;;17.78;57.40;100165.69;7684459;32;36736;-81
2022/05/27 03:40:44;;;;;;;2.95;1.77;;;;;;;17.87;57.26;100163.88;7684257;32;39444;-81
2022/05/27 03:45:10;;;;;;;2.20;1.62;;;;;;;17.79;57.22;100161.81;7685097;32;39610;-81
2022/05/27 03:49:27;;;;;;;2.97;1.98;;;;;;;17.86;57.39;100161.41;7685363;32;38880;-82
2022/05/27 03:58:22;;;;;;;2.47;1.80;;;;;;;17.95;57.22;100154.03;7700618;32;39855;-81
2022/05/27 04:02:38;;;;;;;4.20;1.70;;;;;;;18.31;56.01;100156.72;7711738;32;40622;-81
2022/05/27 04:06:54;;;;;;;7.70;2.00;;;;;;;18.31;56.16;100156.72;7711644;32;38117;-82
2022/05/27 04:11:10;;;;;;;3.95;2.00;;;;;;;18.33;56.44;100148.97;7711977;32;37224;-82
2022/05/27 04:15:26;;;;;;;2.65;1.77;;;;;;;18.38;56.53;100157.12;7700083;32;39329;-83
2022/05/27 04:19:43;;;;;;;2.00;1.60;;;;;;;18.50;55.92;100162.03;7685119;32;39942;-87
2022/05/27 04:23:59;;;;;;;2.90;1.85;;;;;;;18.71;56.39;100159.56;7699377;32;37930;-86
2022/05/27 04:28:15;;;;;;;2.30;1.67;;;;;;;18.95;55.67;100163.91;7706722;32;36987;-79
2022/05/27 04:32:31;;;;;;;2.65;1.70;;;;;;;19.04;54.39;100150.97;7709907;32;39325;-80
2022/05/27 04:36:47;;;;;;;5.50;2.00;;;;;;;18.76;55.29;100151.16;7691236;32;40201;-79
2022/05/27 04:41:03;;;;;;;4.00;2.00;;;;;;;18.84;55.68;100151.53;7684594;32;37904;-80
2022/05/27 04:45:22;;;;;;;5.47;2.00;;;;;;;18.84;56.20;100146.81;7684055;32;37176;-80
2022/05/27 04:49:54;;;;;;;2.35;1.83;;;;;;;19.00;55.74;100155.47;7708375;32;39504;-82
2022/05/27 04:54:10;;;;;;;3.03;2.25;;;;;;;19.07;55.59;100149.50;7711384;32;39979;-81
2022/05/27 04:58:31;;;;;;;2.87;2.05;;;;;;;19.26;55.19;100147.25;7710925;32;38726;-81
2022/05/27 05:02:47;;;;;;;3.97;2.33;;;;;;;19.42;55.07;100155.94;7707693;32;37830;-80
2022/05/27 05:07:07;;;;;;;6.62;2.65;;;;;;;19.67;54.36;100159.03;7686001;32;40414;-81
2022/05/27 05:11:23;;;;;;;3.62;2.50;;;;;;;19.62;55.14;100159.22;7693588;32;39680;-81
2022/05/27 05:15:39;;;;;;;8.40;2.60;;;;;;;19.72;55.87;100161.66;7686652;32;38025;-80
2022/05/27 05:19:56;;;;;;;8.93;2.70;;;;;;;19.98;55.12;100160.88;7697700;32;37801;-81
2022/05/27 05:24:12;;;;;;;3.95;2.50;;;;;;;19.95;55.07;100165.09;7692419;32;39369;-80
2022/05/27 05:28:28;;;;;;;5.40;2.60;;;;;;;20.19;54.70;100166.56;7683795;32;39964;-80
2022/05/27 05:32:44;;;;;;;4.95;2.20;;;;;;;20.34;54.75;100163.28;7683305;32;37624;-80
2022/05/27 05:37:00;;;;;;;2.60;1.80;;;;;;;20.52;53.92;100164.03;7683928;32;37311;-81
2022/05/27 05:41:26;;;;;;;3.25;1.87;;;;;;;20.90;52.91;100162.50;7683585;32;38976;-80
2022/05/27 05:45:42;;;;;;;3.35;1.90;;;;;;;20.82;52.45;100158.63;7683999;32;40096;-82
2022/05/27 05:49:58;;;;;;;2.17;1.60;;;;;;;20.71;51.56;100143.50;7684247;32;38047;-78
2022/05/27 05:54:14;;;;;;;3.45;2.12;;;;;;;20.44;50.28;100151.88;7699953;32;37874;-86
2022/05/27 05:58:30;;;;;;;7.25;1.87;;;;;;;20.36;51.02;100144.38;7708586;32;39376;-85
2022/05/27 06:02:46;;;;;;;4.07;1.48;;;;;;;20.58;51.05;100146.13;7692207;32;40927;-89
2022/05/27 06:07:03;;;;;;;3.20;1.40;;;;;;;20.87;48.52;100141.00;7706791;32;38896;-89
2022/05/27 06:11:19;;;;;;;4.15;1.33;;;;;;;20.88;46.33;100137.88;7696126;32;37776;-86
2022/05/27 06:15:36;;;;;;;4.20;1.30;;;;;;;21.21;44.38;100134.47;7687657;32;39438;-77
2022/05/27 06:19:51;;;;;;;2.58;1.10;;;;;;;20.57;44.17;100143.69;7706732;32;40722;-75
2022/05/27 06:24:08;;;;;;;6.28;1.62;;;;;;;20.79;42.36;100139.88;7709426;32;37669;-79
2022/05/27 06:37:34;;;;;;;8.57;1.75;;;;;;;21.46;44.11;100129.09;7684164;32;40036;-81
2022/05/27 06:41:50;;;;;;;3.37;1.30;;;;;;;21.50;42.17;100130.06;7680844;32;38481;-84
2022/05/27 06:46:06;;;;;;;1.77;1.23;;;;;;;21.31;43.39;100128.53;7682628;32;35657;-81
2022/05/27 06:50:22;;;;;;;2.60;1.20;;;;;;;21.67;42.50;100129.13;7694204;32;40049;-82
2022/05/27 06:54:44;;;;;;;5.87;1.17;;;;;;;21.43;42.39;100125.03;7707676;32;39432;-82
2022/05/27 06:59:01;;;;;;;7.00;1.45;;;;;;;21.48;42.01;100112.97;7698580;32;38752;-83
2022/05/27 07:03:17;;;;;;;2.53;1.27;;;;;;;21.34;42.82;100115.97;7710146;32;37357;-83
2022/05/27 07:07:33;;;;;;;5.22;1.48;;;;;;;21.75;42.81;100109.62;7709773;32;39422;-81
2022/05/27 07:11:51;;;;;;;1.70;1.10;;;;;;;21.61;42.00;100111.06;7690186;32;40488;-82
2022/05/27 07:16:07;;;;;;;2.33;1.12;;;;;;;21.76;41.77;100100.16;7709311;32;38082;-82
2022/05/27 07:20:23;;;;;;;3.72;1.27;;;;;;;21.59;41.93;100105.84;7695128;32;36617;-82
2022/05/27 07:24:42;;;;;;;2.10;1.00;;;;;;;21.76;41.89;100093.78;7697715;32;39355;-78
2022/05/27 07:28:58;;;;;;;4.85;0.98;;;;;;;21.62;40.68;100098.81;7689487;32;40711;-78
2022/05/27 07:33:15;;;;;;;4.32;1.20;;;;;;;22.02;39.39;100092.75;7704310;32;38633;-82
2022/05/27 07:37:31;;;;;;;3.95;1.10;;;;;;;22.22;39.53;100082.75;7712148;32;37072;-82
2022/05/27 07:41:47;;;;;;;1.60;1.35;;;;;;;21.49;40.71;100090.44;7711896;32;39461;-82
2022/05/27 07:46:03;;;;;;;1.25;0.80;;;;;;;22.19;39.78;100078.69;7712007;32;40876;-82
2022/05/27 07:50:20;;;;;;;2.40;1.20;;;;;;;21.89;39.46;100080.81;7685583;32;37652;-82
2022/05/27 07:54:36;;;;;;;3.08;1.05;;;;;;;22.03;38.97;100063.84;7697576;32;37882;-82
2022/05/27 07:58:52;;;;;;;3.80;0.98;;;;;;;22.33;39.46;100064.50;7694671;32;39432;-77
2022/05/27 08:03:08;;;;;;;3.42;1.00;;;;;;;22.45;39.54;100061.75;7693478;32;40776;-78
2022/05/27 08:07:29;;;;;;;4.57;1.10;;;;;;;21.98;39.16;100067.63;7701057;32;38818;-78
2022/05/27 08:11:45;;;;;;;4.53;0.90;;;;;;;21.97;39.58;100070.75;7707414;32;37813;-76
2022/05/27 08:16:01;;;;;;;1.58;0.70;;;;;;;22.39;38.79;100063.13;7711281;32;40030;-76
2022/05/27 08:20:20;;;;;;;0.82;0.82;;;;;;;22.76;38.44;100046.47;7693235;32;41037;-77
2022/05/27 08:24:36;;;;;;;2.08;0.90;;;;;;;22.69;37.95;100047.06;7692081;32;38089;-77
2022/05/27 08:28:58;;;;;;;1.20;0.93;;;;;;;22.53;37.57;100053.69;7685874;32;38186;-76
2022/05/27 08:33:14;;;;;;;3.95;1.40;;;;;;;22.70;37.71;100053.44;7687532;32;40034;-75
2022/05/27 08:42:39;;;;;;;1.55;0.80;;;;;;;23.12;36.89;100044.06;7703480;32;37660;-76
2022/05/27 08:47:10;;;;;;;2.53;0.65;;;;;;;23.31;36.26;100043.44;7710970;32;37778;-77
2022/05/27 08:51:56;;;;;;;1.52;0.90;;;;;;;23.41;35.80;100035.41;7683669;32;39325;-78
2022/05/27 09:01:00;;;;;;;2.40;0.98;;;;;;;24.23;34.38;100011.00;7684333;32;38286;-80
2022/05/27 09:05:33;;;;;;;2.60;0.90;;;;;;;24.22;36.15;100014.97;7671777;32;37001;-78
2022/05/27 09:09:49;;;;;;;1.13;0.77;;;;;;;24.02;33.43;100013.25;7684508;32;39296;-77
2022/05/27 09:14:05;;;;;;;3.83;1.08;;;;;;;23.70;35.88;100002.00;7692426;32;39969;-79
2022/05/27 09:18:39;;;;;;;3.22;1.25;;;;;;;24.13;34.03;100006.78;7690712;32;38348;-78
2022/05/27 09:23:10;;;;;;;3.42;1.10;;;;;;;24.84;33.89;99995.78;7681833;32;37231;-77
2022/05/27 09:27:36;;;;;;;2.12;1.10;;;;;;;24.11;33.68;100005.50;7680918;32;39997;-77
2022/05/27 09:32:09;;;;;;;1.33;0.80;;;;;;;23.90;34.13;99998.22;7697398;32;39596;-78
2022/05/27 09:36:38;;;;;;;3.37;1.10;;;;;;;24.39;33.52;99991.50;7688267;32;37945;-77
2022/05/27 09:41:23;;;;;;;1.27;0.90;;;;;;;24.28;35.13;99974.50;7682775;32;37006;-80
2022/05/27 09:45:40;;;;;;;1.75;0.93;;;;;;;24.59;33.80;99983.25;7695037;32;39402;-79
2022/05/27 09:50:05;;;;;;;1.85;0.80;;;;;;;24.54;35.05;99971.22;7710163;32;40840;-79
2022/05/27 09:54:41;;;;;;;1.83;0.75;;;;;;;23.85;34.44;99987.34;7708448;32;37955;-75
2022/05/27 09:59:19;;;;;;;0.95;0.90;;;;;;;23.97;34.73;99964.19;7683452;32;37507;-76
2022/05/27 10:03:38;;;;;;;2.22;1.00;;;;;;;23.98;34.08;99961.03;7708985;32;39259;-78
2022/05/27 10:07:57;;;;;;;1.75;0.90;;;;;;;24.15;32.82;99964.66;7707293;32;39619;-77
2022/05/27 10:12:26;;;;;;;3.97;1.12;;;;;;;24.16;34.38;99955.94;7702030;32;37983;-78
2022/05/27 10:16:57;;;;;;;2.33;0.98;;;;;;;24.54;33.57;99943.34;7702690;32;36693;-76
2022/05/27 10:21:20;;;;;;;5.57;0.80;;;;;;;24.47;34.44;99942.31;7709042;32;40044;-76
2022/05/27 10:25:43;;;;;;;8.38;1.20;;;;;;;24.95;32.51;99951.41;7705509;32;39575;-75
2022/05/27 10:30:01;;;;;;;7.32;1.23;;;;;;;24.95;31.61;99934.66;7707903;32;37986;-76
2022/05/27 10:34:43;;;;;;;2.92;1.10;;;;;;;25.44;31.63;99922.94;7685413;32;37872;-77
2022/05/27 10:39:03;;;;;;;4.70;0.82;;;;;;;25.92;30.27;99903.03;7681806;32;39307;-76
2022/05/27 10:43:31;;;;;;;3.60;0.80;;;;;;;26.01;31.97;99905.66;7708179;32;39590;-77
2022/05/27 10:48:15;;;;;;;4.78;0.82;;;;;;;26.22;31.23;99883.62;7701618;32;37983;-78
2022/05/27 10:52:33;;;;;;;2.40;1.05;;;;;;;26.51;31.42;99884.06;7699690;32;36716;-78
2022/05/27 11:02:18;;;;;;;0.90;0.82;;;;;;;26.68;29.03;99867.91;7711426;32;40822;-78
2022/05/27 11:07:06;;;;;;;1.67;1.00;;;;;;;26.72;29.98;99854.81;7712457;32;37848;-79
2022/05/27 11:11:30;;;;;;;2.92;0.88;;;;;;;27.09;30.09;99845.66;7686696;32;37668;-78
2022/05/27 11:16:14;;;;;;;1.95;0.93;;;;;;;26.90;29.93;99849.41;7694238;32;39829;-77
2022/05/27 11:20:33;;;;;;;1.45;0.80;;;;;;;27.10;29.53;99831.28;7705968;32;39797;-79
2022/05/27 11:25:21;;;;;;;4.50;1.05;;;;;;;26.89;29.84;99831.84;7710597;32;38247;-78
2022/05/27 11:30:00;;;;;;;1.02;0.85;;;;;;;26.70;31.24;99810.44;7704557;32;38001;-78
2022/05/27 11:34:22;;;;;;;3.33;0.82;;;;;;;27.18;29.82;99826.53;7685396;32;39821;-78
2022/05/27 11:38:57;;;;;;;1.42;0.98;;;;;;;27.67;29.12;99828.25;7685216;32;40848;-78
2022/05/27 11:43:25;;;;;;;2.47;0.95;;;;;;;27.14;30.32;99808.94;7684947;32;37800;-77
2022/05/27 11:47:58;;;;;;;4.57;1.02;;;;;;;27.11;30.63;99798.50;7685448;32;37141;-79
2022/05/27 11:52:54;;;;;;;1.37;0.90;;;;;;;27.23;30.41;99783.44;7691360;32;38630;-77
2022/05/27 11:57:25;;;;;;;1.92;1.02;;;;;;;27.68;30.59;99787.87;7687007;32;39507;-78
2022/05/27 12:01:48;;;;;;;1.98;1.10;;;;;;;27.68;30.37;99782.25;7699152;32;37964;-79
2022/05/27 12:06:12;;;;;;;2.20;0.85;;;;;;;27.37;29.94;99782.78;7685312;32;36762;-78
2022/05/27 12:10:34;;;;;;;3.53;0.82;;;;;;;27.28;30.99;99764.31;7684047;32;39371;-78
2022/05/27 12:15:01;;;;;;;1.43;1.20;;;;;;;27.02;31.11;99767.25;7704137;32;40770;-78
2022/05/27 12:19:29;;;;;;;1.73;1.00;;;;;;;27.17;31.09;99753.00;7709564;32;38668;-78
2022/05/27 12:24:17;;;;;;;4.30;0.90;;;;;;;27.60;30.84;99755.41;7707256;32;36638;-79
2022/05/27 12:28:36;;;;;;;2.30;0.90;;;;;;;27.90;29.90;99748.78;7709988;32;39178;-78
2022/05/27 12:32:53;;;;;;;2.37;1.05;;;;;;;28.04;29.84;99732.09;7707336;32;40794;-78
2022/05/27 12:37:12;;;;;;;2.20;0.98;;;;;;;28.44;29.82;99724.69;7708928;32;38993;-79
2022/05/27 12:41:36;;;;;;;3.33;1.12;;;;;;;28.15;30.73;99729.34;7705310;32;37948;-78
2022/05/27 12:46:00;;;;;;;2.83;1.20;;;;;;;28.31;29.54;99709.41;7684941;32;40074;-77
2022/05/27 12:50:25;;;;;;;5.05;1.45;;;;;;;28.29;30.83;99706.19;7683838;32;40639;-77
2022/05/27 12:54:48;;;;;;;0.80;0.80;;;;;;;28.16;30.23;99714.13;7678712;32;161861;-78
2022/05/27 13:04:50;;;;;;;3.45;1.20;;;;;;;28.59;28.90;99689.09;7711313;32;39011;-78
2022/05/27 13:09:09;;;;;;;5.22;1.17;;;;;;;28.35;29.48;99667.38;7711180;32;40586;-77
2022/05/27 13:13:28;;;;;;;3.03;1.50;;;;;;;28.46;29.49;99669.00;7694928;32;38698;-77
2022/05/27 13:17:49;;;;;;;1.98;1.02;;;;;;;28.46;30.54;99655.00;7684465;32;37026;-77
2022/05/27 13:22:31;;;;;;;3.60;1.23;;;;;;;28.79;29.67;99649.47;7688372;32;39391;-79
2022/05/27 13:27:00;;;;;;;5.78;1.27;;;;;;;28.25;29.12;99638.09;7684233;32;40742;-78
2022/05/27 13:31:22;;;;;;;1.40;1.00;;;;;;;28.36;29.49;99630.53;7683046;32;37848;-78
2022/05/27 13:35:42;;;;;;;3.22;1.30;;;;;;;27.90;28.56;99631.94;7684281;32;36714;-77
2022/05/27 13:40:34;;;;;;;1.27;1.10;;;;;;;27.89;30.46;99624.75;7682677;32;40287;-78
2022/05/27 13:44:50;;;;;;;2.53;1.00;;;;;;;27.70;31.29;99617.47;7684780;32;40946;-77
2022/05/27 13:49:37;;;;;;;5.10;1.10;;;;;;;27.50;32.53;99610.53;7707644;32;38188;-78
2022/05/27 13:53:54;;;;;;;5.25;1.10;;;;;;;27.81;31.41;99599.91;7709054;32;37103;-77
2022/05/27 13:58:11;;;;;;;1.87;1.10;;;;;;;28.13;30.72;99596.44;7709589;32;39402;-79
2022/05/27 14:02:43;;;;;;;5.32;1.05;;;;;;;27.71;31.36;99596.63;7708121;32;39846;-79
2022/05/27 14:07:00;;;;;;;7.72;1.20;;;;;;;27.22;30.65;99581.16;7700503;32;37914;-78
2022/05/27 14:11:31;;;;;;;2.15;1.10;;;;;;;26.93;32.18;99586.53;7686543;32;36720;-78
2022/05/27 14:15:47;;;;;;;2.78;1.05;;;;;;;26.76;32.61;99564.84;7686131;32;39490;-77
2022/05/27 14:20:07;;;;;;;1.75;1.10;;;;;;;26.56;32.12;99561.44;7686130;32;40088;-77
2022/05/27 14:24:36;;;;;;;1.23;0.73;;;;;;;26.32;32.45;99558.03;7685950;32;37914;-77
2022/05/27 14:28:55;;;;;;;2.97;1.15;;;;;;;26.86;31.86;99550.13;7684240;32;38021;-78
2022/05/27 14:33:22;;;;;;;1.65;1.00;;;;;;;27.24;30.48;99545.19;7686425;32;40116;-77
2022/05/27 14:37:47;;;;;;;3.72;0.80;;;;;;;27.77;30.08;99537.47;7684389;32;42246;-77
2022/05/27 14:42:04;;;;;;;2.92;0.90;;;;;;;27.48;29.88;99531.75;7684922;32;39416;-78
2022/05/27 14:46:21;;;;;;;1.67;1.12;;;;;;;27.44;31.03;99531.75;7685659;32;37135;-77
2022/05/27 14:50:37;;;;;;;2.20;1.10;;;;;;;27.15;32.01;99525.16;7685756;32;40229;-77
2022/05/27 14:55:00;;;;;;;2.35;1.23;;;;;;;27.61;30.94;99524.59;7685757;32;40871;-78
2022/05/27 14:59:27;;;;;;;0.90;0.90;;;;;;;27.88;30.23;99516.69;7684985;32;38588;-78
2022/05/27 15:03:43;;;;;;;3.08;1.77;;;;;;;27.71;31.67;99504.22;7684918;32;37042;-77
2022/05/27 15:08:19;;;;;;;2.87;1.10;;;;;;;27.78;30.96;99502.66;7683894;32;39418;-77
2022/05/27 15:12:35;;;;;;;6.22;3.62;;;;;;;27.29;31.36;99502.88;7687710;32;40104;-77
2022/05/27 15:17:00;;;;;;;2.37;1.50;;;;;;;27.46;31.71;99497.78;7684815;32;37950;-78
2022/05/27 15:21:27;;;;;;;3.87;1.62;;;;;;;27.49;30.66;99494.16;7689535;32;37851;-78
2022/05/27 15:25:44;;;;;;;2.40;1.20;;;;;;;28.08;30.07;99486.34;7701712;32;39946;-77
2022/05/27 15:34:44;;;;;;;1.98;1.20;;;;;;;28.81;29.81;99468.34;7684527;32;38720;-78
2022/05/27 15:39:01;;;;;;;3.95;1.10;;;;;;;28.64;29.56;99477.59;7700698;32;37671;-78
2022/05/27 15:43:20;;;;;;;5.50;1.10;;;;;;;29.26;29.06;99467.06;7701733;32;39361;-78
2022/05/27 15:47:37;;;;;;;2.37;0.90;;;;;;;28.97;29.51;99459.47;7702733;32;40088;-74
2022/05/27 15:51:54;;;;;;;2.37;1.02;;;;;;;28.68;29.09;99455.94;7684283;32;38661;-74
2022/05/27 15:56:10;;;;;;;2.47;1.02;;;;;;;28.78;29.45;99448.72;7685221;32;37806;-75
2022/05/27 16:00:27;;;;;;;1.60;1.02;;;;;;;28.58;29.99;99435.13;7697649;32;39538;-74
2022/05/27 16:04:43;;;;;;;1.85;1.05;;;;;;;28.87;30.20;99423.03;7709982;32;40013;-75
2022/05/27 16:08:59;;;;;;;5.25;1.23;;;;;;;28.96;29.30;99420.59;7711074;32;38126;-75
2022/05/27 16:13:16;;;;;;;2.87;1.00;;;;;;;28.83;29.91;99411.84;7710638;32;37974;-75
2022/05/27 16:17:50;;;;;;;2.55;1.00;;;;;;;28.58;29.34;99407.09;7711297;32;39483;-74
2022/05/27 16:22:06;;;;;;;3.10;1.00;;;;;;;28.26;30.14;99415.50;7710696;32;39913;-74
2022/05/27 16:26:22;;;;;;;1.50;1.30;;;;;;;28.06;31.27;99415.91;7711102;32;37955;-75
2022/05/27 16:30:47;;;;;;;2.05;1.05;;;;;;;28.01;30.38;99412.69;7710809;32;38018;-75
2022/05/27 16:35:06;;;;;;;1.67;1.10;;;;;;;27.69;31.38;99413.44;7710998;32;40403;-75
2022/05/27 16:39:22;;;;;;;1.73;1.20;;;;;;;27.43;32.28;99411.78;7702780;32;40406;-77
2022/05/27 16:43:38;;;;;;;3.05;1.20;;;;;;;27.32;32.08;99417.31;7684115;32;37586;-76
2022/05/27 16:47:54;;;;;;;3.22;1.33;;;;;;;27.72;31.77;99419.03;7689772;32;36722;-74
2022/05/27 16:52:10;;;;;;;4.62;1.10;;;;;;;27.66;32.28;99417.81;7709025;32;39223;-74
2022/05/27 16:56:26;;;;;;;3.03;0.88;;;;;;;27.98;31.74;99414.31;7703301;32;39709;-76
2022/05/27 17:00:42;;;;;;;4.75;1.20;;;;;;;27.84;31.75;99408.69;7692748;32;37996;-75
2022/05/27 17:04:59;;;;;;;2.67;1.00;;;;;;;27.94;31.40;99410.72;7701853;32;37771;-77
2022/05/27 17:09:15;;;;;;;3.33;1.52;;;;;;;27.86;31.53;99406.25;7711155;32;40109;-77
2022/05/27 17:13:31;;;;;;;3.15;1.10;;;;;;;27.11;32.01;99415.22;7709985;32;40077;-76
2022/05/27 17:17:49;;;;;;;3.03;1.50;;;;;;;26.74;33.47;99410.66;7709431;32;37585;-77
2022/05/27 17:22:06;;;;;;;5.07;1.27;;;;;;;26.82;33.71;99415.09;7710315;32;37286;-78
2022/05/27 17:26:23;;;;;;;4.12;1.40;;;;;;;26.50;35.57;99417.66;7709595;32;39407;-78
2022/05/27 17:30:39;;;;;;;5.40;1.37;;;;;;;26.41;35.49;99415.22;7700756;32;41547;-77
2022/05/27 17:34:56;;;;;;;9.70;1.55;;;;;;;26.27;35.58;99426.25;7693583;32;38824;-77
2022/05/27 17:39:14;;;;;;;1.33;1.12;;;;;;;25.41;38.03;99432.59;7683766;32;36749;-77
2022/05/27 17:43:32;;;;;;;0.88;0.80;;;;;;;25.80;37.03;99432.22;7682795;32;37888;-77
2022/05/27 17:52:24;;;;;;;3.05;0.90;;;;;;;25.57;35.96;99424.00;7709816;32;39108;-78
2022/05/27 17:56:40;;;;;;;1.75;0.95;;;;;;;25.37;34.76;99426.19;7706171;32;37908;-78
2022/05/27 18:00:59;;;;;;;5.37;0.90;;;;;;;25.71;32.32;99431.72;7690188;32;39488;-83
2022/05/27 18:05:17;;;;;;;3.47;0.93;;;;;;;25.20;32.70;99435.06;7691499;32;39652;-86
2022/05/27 18:09:33;;;;;;;1.05;0.88;;;;;;;25.18;32.69;99434.66;7706092;32;37974;-76
2022/05/27 18:13:50;;;;;;;3.12;0.90;;;;;;;25.25;32.25;99424.44;7683811;32;37044;-78
2022/05/27 18:18:06;;;;;;;10.27;3.78;;;;;;;25.23;32.44;99425.97;7683125;32;39077;-80
2022/05/27 18:22:22;;;;;;;2.28;1.30;;;;;;;25.25;33.47;99434.75;7683028;32;40049;-78
2022/05/27 18:26:39;;;;;;;3.03;1.40;;;;;;;25.14;34.99;99428.25;7683361;32;38772;-79
2022/05/27 18:30:55;;;;;;;6.30;1.60;;;;;;;24.90;36.05;99430.31;7684230;32;37055;-79
2022/05/27 18:35:12;;;;;;;4.40;2.78;;;;;;;24.67;34.71;99422.03;7709433;32;40011;-77
2022/05/27 18:39:28;;;;;;;3.80;1.40;;;;;;;25.00;33.68;99434.44;7707314;32;40654;-76
2022/05/27 18:43:46;;;;;;;2.92;1.80;;;;;;;24.85;33.07;99427.84;7706058;32;38648;-77
2022/05/27 18:48:02;;;;;;;8.38;4.10;;;;;;;24.95;33.72;99438.34;7682537;32;37151;-78
2022/05/27 18:52:18;;;;;;;27.05;14.63;;;;;;;24.96;34.45;99434.41;7685322;32;39451;-78
2022/05/27 18:56:34;;;;;;;5.55;2.87;;;;;;;24.68;35.53;99434.78;7712789;32;40992;-78
2022/05/27 19:00:50;;;;;;;4.35;1.90;;;;;;;24.41;35.69;99431.19;7706047;32;38159;-78
2022/05/27 19:05:07;;;;;;;4.22;1.50;;;;;;;24.35;36.57;99447.38;7685994;32;37033;-78
2022/05/27 19:09:29;;;;;;;7.70;1.40;;;;;;;24.41;36.45;99447.91;7697099;32;40224;-77
2022/05/27 19:13:46;;;;;;;3.12;1.30;;;;;;;24.52;35.92;99449.66;7709519;32;41295;-76
2022/05/27 19:18:02;;;;;;;1.92;1.10;;;;;;;24.42;35.03;99457.84;7712145;32;37613;-76
2022/05/27 19:22:18;;;;;;;3.00;1.10;;;;;;;24.47;33.88;99457.53;7685887;32;36741;-77
2022/05/27 19:26:35;;;;;;;3.40;1.00;;;;;;;24.45;34.23;99459.87;7694021;32;39449;-76
2022/05/27 19:30:51;;;;;;;3.25;0.90;;;;;;;24.32;35.36;99467.66;7712030;32;39960;-76
2022/05/27 19:35:08;;;;;;;1.02;0.82;;;;;;;24.16;34.13;99476.94;7712270;32;37934;-76
2022/05/27 19:39:31;;;;;;;7.75;1.17;;;;;;;24.05;35.65;99489.06;7701599;32;36745;-78
2022/05/27 19:43:49;;;;;;;9.60;1.30;;;;;;;23.73;36.11;99506.75;7711121;32;41099;-77
2022/05/27 19:48:11;;;;;;;3.00;1.42;;;;;;;23.63;35.56;99510.91;7710732;32;39930;-76
2022/05/27 19:52:27;;;;;;;3.97;1.43;;;;;;;23.03;36.43;99510.38;7711462;32;38736;-76
2022/05/27 19:56:43;;;;;;;4.15;1.42;;;;;;;23.09;35.47;99514.50;7711064;32;36429;-76
2022/05/27 20:00:59;;;;;;;4.72;1.90;;;;;;;23.05;35.77;99528.34;7711724;32;39368;-77
2022/05/27 20:05:15;;;;;;;6.07;1.67;;;;;;;22.64;37.11;99543.59;7710043;32;40059;-76
2022/05/27 20:09:31;;;;;;;6.87;1.77;;;;;;;22.27;38.84;99552.19;7699268;32;37958;-76
2022/05/27 20:13:47;;;;;;;3.05;1.60;;;;;;;22.41;38.89;99574.78;7685161;32;37310;-77
2022/05/27 20:18:03;;;;;;;3.35;1.40;;;;;;;21.75;41.04;99598.31;7703591;32;40140;-76
2022/05/27 20:22:22;;;;;;;3.45;1.50;;;;;;;21.73;40.97;99598.69;7709453;32;39996;-76
2022/05/27 20:26:40;;;;;;;2.10;1.00;;;;;;;21.28;41.28;99619.06;7709403;32;37748;-76
2022/05/27 20:30:55;;;;;;;5.00;1.15;;;;;;;21.48;40.61;99614.56;7706870;32;37679;-76
2022/05/27 20:35:12;;;;;;;1.48;1.00;;;;;;;21.19;41.23;99632.22;7709350;32;39288;-76
2022/05/27 20:39:38;;;;;;;2.72;1.05;;;;;;;21.28;41.02;99623.78;7707075;32;40878;-76
2022/05/27 20:43:56;;;;;;;3.08;0.90;;;;;;;20.94;41.56;99631.44;7708557;32;37824;-76
2022/05/27 20:48:12;;;;;;;1.02;0.73;;;;;;;20.89;41.78;99632.47;7709176;32;37365;-76
2022/05/27 20:52:28;;;;;;;2.50;0.90;;;;;;;20.32;43.16;99636.81;7709190;32;40126;-76
2022/05/27 20:56:45;;;;;;;1.15;0.90;;;;;;;20.59;42.25;99620.72;7709199;32;40036;-76
2022/05/27 21:01:02;;;;;;;3.10;0.80;;;;;;;20.69;42.36;99627.81;7709046;32;37958;-76
2022/05/27 21:05:18;;;;;;;1.33;0.88;;;;;;;20.47;42.56;99634.53;7708931;32;37764;-76
2022/05/27 21:09:34;;;;;;;2.45;0.82;;;;;;;20.71;41.96;99629.06;7708276;32;38999;-75